sensor_id;sensor_type;location;lat;lon;timestamp;temperature;humidity
62991;DHT22;49084;48.204;16.202;2022-09-09T00:00:18;12.60;99.90
62991;DHT22;49084;48.204;16.202;2022-09-09T00:05:46;12.50;99.90
62991;DHT22;49084;48.204;16.202;2022-09-09T00:08:25;12.50;99.90
62991;DHT22;49084;48.204;16.202;2022-09-09T00:10:58;12.50;99.90
62991;DHT22;49084;48.204;16.202;2022-09-09T00:13:43;12.50;99.90
62991;DHT22;49084;48.204;16.202;2022-09-09T00:16:28;12.50;99.90
62991;DHT22;49084;48.204;16.202;2022-09-09T00:29:47;12.40;99.90
62991;DHT22;49084;48.204;16.202;2022-09-09T00:32:18;12.40;99.90
62991;DHT22;49084;48.204;16.202;2022-09-09T00:37:37;12.40;99.90
62991;DHT22;49084;48.204;16.202;2022-09-09T00:40:16;12.40;99.90
62991;DHT22;49084;48.204;16.202;2022-09-09T00:42:44;12.40;99.90
62991;DHT22;49084;48.204;16.202;2022-09-09T00:47:45;12.30;99.90
62991;DHT22;49084;48.204;16.202;2022-09-09T00:50:24;12.30;99.90
62991;DHT22;49084;48.204;16.202;2022-09-09T00:56:14;12.20;99.90
62991;DHT22;49084;48.204;16.202;2022-09-09T00:59:22;12.30;99.90
62991;DHT22;49084;48.204;16.202;2022-09-09T01:01:51;12.20;99.90
62991;DHT22;49084;48.204;16.202;2022-09-09T01:04:23;12.20;99.90
62991;DHT22;49084;48.204;16.202;2022-09-09T01:07:07;12.20;99.90
62991;DHT22;49084;48.204;16.202;2022-09-09T01:12:16;12.10;99.90
62991;DHT22;49084;48.204;16.202;2022-09-09T01:14:47;12.10;99.90
62991;DHT22;49084;48.204;16.202;2022-09-09T01:17:20;12.10;99.90
62991;DHT22;49084;48.204;16.202;2022-09-09T01:23:10;12.00;99.90
62991;DHT22;49084;48.204;16.202;2022-09-09T01:28:14;12.00;99.90
62991;DHT22;49084;48.204;16.202;2022-09-09T01:30:42;12.00;99.90
62991;DHT22;49084;48.204;16.202;2022-09-09T01:33:15;12.00;99.90
62991;DHT22;49084;48.204;16.202;2022-09-09T01:38:07;12.00;99.90
62991;DHT22;49084;48.204;16.202;2022-09-09T01:40:33;11.90;99.90
62991;DHT22;49084;48.204;16.202;2022-09-09T01:42:58;11.90;99.90
62991;DHT22;49084;48.204;16.202;2022-09-09T01:45:24;11.90;99.90
62991;DHT22;49084;48.204;16.202;2022-09-09T01:47:52;11.90;99.90
62991;DHT22;49084;48.204;16.202;2022-09-09T01:50:18;11.90;99.90
62991;DHT22;49084;48.204;16.202;2022-09-09T01:52:46;11.90;99.90
62991;DHT22;49084;48.204;16.202;2022-09-09T01:55:13;11.80;99.90
62991;DHT22;49084;48.204;16.202;2022-09-09T01:57:41;11.80;99.90
62991;DHT22;49084;48.204;16.202;2022-09-09T02:00:12;11.80;99.90
62991;DHT22;49084;48.204;16.202;2022-09-09T02:03:00;11.80;99.90
62991;DHT22;49084;48.204;16.202;2022-09-09T02:08:20;11.70;99.90
62991;DHT22;49084;48.204;16.202;2022-09-09T02:10:58;11.70;99.90
62991;DHT22;49084;48.204;16.202;2022-09-09T02:13:26;11.70;99.90
62991;DHT22;49084;48.204;16.202;2022-09-09T02:18:44;11.70;99.90
62991;DHT22;49084;48.204;16.202;2022-09-09T02:21:12;11.60;99.90
62991;DHT22;49084;48.204;16.202;2022-09-09T02:23:41;11.60;99.90
62991;DHT22;49084;48.204;16.202;2022-09-09T02:26:10;11.60;99.90
62991;DHT22;49084;48.204;16.202;2022-09-09T02:28:39;11.60;99.90
62991;DHT22;49084;48.204;16.202;2022-09-09T02:31:06;11.60;99.90
62991;DHT22;49084;48.204;16.202;2022-09-09T02:33:40;11.60;99.90
62991;DHT22;49084;48.204;16.202;2022-09-09T02:36:08;11.60;99.90
62991;DHT22;49084;48.204;16.202;2022-09-09T02:38:39;11.60;99.90
62991;DHT22;49084;48.204;16.202;2022-09-09T02:41:05;11.60;99.90
62991;DHT22;49084;48.204;16.202;2022-09-09T02:43:35;11.60;99.90
62991;DHT22;49084;48.204;16.202;2022-09-09T02:54:20;11.60;99.90
62991;DHT22;49084;48.204;16.202;2022-09-09T02:56:53;11.50;99.90
62991;DHT22;49084;48.204;16.202;2022-09-09T02:59:22;11.50;99.90
62991;DHT22;49084;48.204;16.202;2022-09-09T03:01:50;11.50;99.90
62991;DHT22;49084;48.204;16.202;2022-09-09T03:04:15;11.50;99.90
62991;DHT22;49084;48.204;16.202;2022-09-09T03:06:41;11.50;99.90
62991;DHT22;49084;48.204;16.202;2022-09-09T03:09:06;11.50;99.90
62991;DHT22;49084;48.204;16.202;2022-09-09T03:11:33;11.50;99.90
62991;DHT22;49084;48.204;16.202;2022-09-09T03:13:58;11.50;99.90
62991;DHT22;49084;48.204;16.202;2022-09-09T03:16:24;11.50;99.90
62991;DHT22;49084;48.204;16.202;2022-09-09T03:18:50;11.50;99.90
62991;DHT22;49084;48.204;16.202;2022-09-09T03:21:15;11.50;99.90
62991;DHT22;49084;48.204;16.202;2022-09-09T03:23:41;11.50;99.90
62991;DHT22;49084;48.204;16.202;2022-09-09T03:26:07;11.50;99.90
62991;DHT22;49084;48.204;16.202;2022-09-09T03:28:33;11.50;99.90
62991;DHT22;49084;48.204;16.202;2022-09-09T03:31:04;11.50;99.90
62991;DHT22;49084;48.204;16.202;2022-09-09T03:33:30;11.50;99.90
62991;DHT22;49084;48.204;16.202;2022-09-09T03:35:57;11.50;99.90
62991;DHT22;49084;48.204;16.202;2022-09-09T03:38:26;11.50;99.90
62991;DHT22;49084;48.204;16.202;2022-09-09T03:40:52;11.50;99.90
62991;DHT22;49084;48.204;16.202;2022-09-09T03:43:25;11.50;99.90
62991;DHT22;49084;48.204;16.202;2022-09-09T03:45:52;11.50;99.90
62991;DHT22;49084;48.204;16.202;2022-09-09T03:48:18;11.40;99.90
62991;DHT22;49084;48.204;16.202;2022-09-09T03:50:45;11.40;99.90
62991;DHT22;49084;48.204;16.202;2022-09-09T03:53:11;11.40;99.90
62991;DHT22;49084;48.204;16.202;2022-09-09T03:55:37;11.40;99.90
62991;DHT22;49084;48.204;16.202;2022-09-09T03:58:02;11.40;99.90
62991;DHT22;49084;48.204;16.202;2022-09-09T04:00:28;11.30;99.90
62991;DHT22;49084;48.204;16.202;2022-09-09T04:02:55;11.30;99.90
62991;DHT22;49084;48.204;16.202;2022-09-09T04:05:23;11.30;99.90
62991;DHT22;49084;48.204;16.202;2022-09-09T04:07:48;11.30;99.90
62991;DHT22;49084;48.204;16.202;2022-09-09T04:10:14;11.30;99.90
62991;DHT22;49084;48.204;16.202;2022-09-09T04:12:41;11.30;99.90
62991;DHT22;49084;48.204;16.202;2022-09-09T04:15:07;11.30;99.90
62991;DHT22;49084;48.204;16.202;2022-09-09T04:17:33;11.30;99.90
62991;DHT22;49084;48.204;16.202;2022-09-09T04:19:59;11.30;99.90
62991;DHT22;49084;48.204;16.202;2022-09-09T04:22:24;11.30;99.90
62991;DHT22;49084;48.204;16.202;2022-09-09T04:24:50;11.30;99.90
62991;DHT22;49084;48.204;16.202;2022-09-09T04:27:15;11.30;99.90
62991;DHT22;49084;48.204;16.202;2022-09-09T04:29:41;11.30;99.90
62991;DHT22;49084;48.204;16.202;2022-09-09T04:32:07;11.30;99.90
62991;DHT22;49084;48.204;16.202;2022-09-09T04:34:32;11.20;99.90
62991;DHT22;49084;48.204;16.202;2022-09-09T04:36:58;11.20;99.90
62991;DHT22;49084;48.204;16.202;2022-09-09T04:39:24;11.20;99.90
62991;DHT22;49084;48.204;16.202;2022-09-09T04:41:50;11.30;99.90
62991;DHT22;49084;48.204;16.202;2022-09-09T04:44:16;11.30;99.90
62991;DHT22;49084;48.204;16.202;2022-09-09T04:46:41;11.20;99.90
62991;DHT22;49084;48.204;16.202;2022-09-09T04:49:07;11.20;99.90
62991;DHT22;49084;48.204;16.202;2022-09-09T04:51:33;11.20;99.90
62991;DHT22;49084;48.204;16.202;2022-09-09T04:53:58;11.10;99.90
62991;DHT22;49084;48.204;16.202;2022-09-09T04:56:24;11.10;99.90
62991;DHT22;49084;48.204;16.202;2022-09-09T04:58:52;11.10;99.90
62991;DHT22;49084;48.204;16.202;2022-09-09T05:01:20;11.20;99.90
62991;DHT22;49084;48.204;16.202;2022-09-09T05:03:49;11.20;99.90
62991;DHT22;49084;48.204;16.202;2022-09-09T05:06:17;11.20;99.90
62991;DHT22;49084;48.204;16.202;2022-09-09T05:08:44;11.20;99.90
62991;DHT22;49084;48.204;16.202;2022-09-09T05:13:39;11.20;99.90
62991;DHT22;49084;48.204;16.202;2022-09-09T05:16:05;11.30;99.90
62991;DHT22;49084;48.204;16.202;2022-09-09T05:18:31;11.20;99.90
62991;DHT22;49084;48.204;16.202;2022-09-09T05:20:59;11.20;99.90
62991;DHT22;49084;48.204;16.202;2022-09-09T05:23:25;11.20;99.90
62991;DHT22;49084;48.204;16.202;2022-09-09T05:25:56;11.20;99.90
62991;DHT22;49084;48.204;16.202;2022-09-09T05:28:23;11.20;99.90
62991;DHT22;49084;48.204;16.202;2022-09-09T05:31:10;11.30;99.90
62991;DHT22;49084;48.204;16.202;2022-09-09T05:33:40;11.40;99.90
62991;DHT22;49084;48.204;16.202;2022-09-09T05:36:09;11.70;99.90
62991;DHT22;49084;48.204;16.202;2022-09-09T05:38:36;12.00;99.90
62991;DHT22;49084;48.204;16.202;2022-09-09T05:41:03;12.30;99.90
62991;DHT22;49084;48.204;16.202;2022-09-09T05:43:29;12.40;99.90
62991;DHT22;49084;48.204;16.202;2022-09-09T05:46:10;12.70;99.90
62991;DHT22;49084;48.204;16.202;2022-09-09T05:48:38;12.90;99.90
62991;DHT22;49084;48.204;16.202;2022-09-09T05:51:06;13.10;99.90
62991;DHT22;49084;48.204;16.202;2022-09-09T05:53:32;13.10;99.90
62991;DHT22;49084;48.204;16.202;2022-09-09T05:56:05;13.20;99.90
62991;DHT22;49084;48.204;16.202;2022-09-09T05:58:34;13.10;99.90
62991;DHT22;49084;48.204;16.202;2022-09-09T06:03:29;13.10;99.90
62991;DHT22;49084;48.204;16.202;2022-09-09T06:06:00;13.00;99.90
62991;DHT22;49084;48.204;16.202;2022-09-09T06:08:26;12.90;99.90
62991;DHT22;49084;48.204;16.202;2022-09-09T06:10:51;12.90;99.90
62991;DHT22;49084;48.204;16.202;2022-09-09T06:13:17;12.80;99.90
62991;DHT22;49084;48.204;16.202;2022-09-09T06:15:50;13.00;99.90
62991;DHT22;49084;48.204;16.202;2022-09-09T06:18:16;13.20;99.90
62991;DHT22;49084;48.204;16.202;2022-09-09T06:20:56;13.30;99.90
62991;DHT22;49084;48.204;16.202;2022-09-09T06:23:22;13.80;99.90
62991;DHT22;49084;48.204;16.202;2022-09-09T06:25:48;14.40;99.90
62991;DHT22;49084;48.204;16.202;2022-09-09T06:28:15;15.00;99.90
62991;DHT22;49084;48.204;16.202;2022-09-09T06:30:41;15.90;99.90
62991;DHT22;49084;48.204;16.202;2022-09-09T06:33:07;16.60;99.90
62991;DHT22;49084;48.204;16.202;2022-09-09T06:35:32;17.40;99.90
62991;DHT22;49084;48.204;16.202;2022-09-09T06:37:58;17.90;99.90
62991;DHT22;49084;48.204;16.202;2022-09-09T06:40:24;18.20;99.90
62991;DHT22;49084;48.204;16.202;2022-09-09T06:42:50;18.10;99.90
62991;DHT22;49084;48.204;16.202;2022-09-09T06:45:17;17.70;99.90
62991;DHT22;49084;48.204;16.202;2022-09-09T06:47:43;17.30;99.90
62991;DHT22;49084;48.204;16.202;2022-09-09T06:50:09;17.00;99.90
62991;DHT22;49084;48.204;16.202;2022-09-09T06:52:35;16.70;99.90
62991;DHT22;49084;48.204;16.202;2022-09-09T06:55:01;16.50;99.90
62991;DHT22;49084;48.204;16.202;2022-09-09T06:57:28;16.40;99.90
62991;DHT22;49084;48.204;16.202;2022-09-09T06:59:53;16.40;99.90
62991;DHT22;49084;48.204;16.202;2022-09-09T07:02:19;16.40;99.90
62991;DHT22;49084;48.204;16.202;2022-09-09T07:04:45;16.50;99.90
62991;DHT22;49084;48.204;16.202;2022-09-09T07:07:12;16.70;99.90
62991;DHT22;49084;48.204;16.202;2022-09-09T07:09:39;16.90;99.90
62991;DHT22;49084;48.204;16.202;2022-09-09T07:12:06;16.90;99.90
62991;DHT22;49084;48.204;16.202;2022-09-09T07:14:32;16.90;99.90
62991;DHT22;49084;48.204;16.202;2022-09-09T07:16:59;16.90;99.90
62991;DHT22;49084;48.204;16.202;2022-09-09T07:19:25;17.20;99.90
62991;DHT22;49084;48.204;16.202;2022-09-09T07:21:51;17.70;99.90
62991;DHT22;49084;48.204;16.202;2022-09-09T07:24:17;18.30;99.90
62991;DHT22;49084;48.204;16.202;2022-09-09T07:26:43;19.00;99.90
62991;DHT22;49084;48.204;16.202;2022-09-09T07:29:09;19.60;99.90
62991;DHT22;49084;48.204;16.202;2022-09-09T07:31:38;19.90;99.90
62991;DHT22;49084;48.204;16.202;2022-09-09T07:34:05;20.20;99.90
62991;DHT22;49084;48.204;16.202;2022-09-09T07:36:36;20.70;99.90
62991;DHT22;49084;48.204;16.202;2022-09-09T07:39:07;21.10;99.90
62991;DHT22;49084;48.204;16.202;2022-09-09T07:41:34;21.10;99.90
62991;DHT22;49084;48.204;16.202;2022-09-09T07:44:12;21.70;99.90
62991;DHT22;49084;48.204;16.202;2022-09-09T07:46:38;22.60;99.90
62991;DHT22;49084;48.204;16.202;2022-09-09T07:49:08;23.30;99.90
62991;DHT22;49084;48.204;16.202;2022-09-09T07:51:36;23.60;98.30
62991;DHT22;49084;48.204;16.202;2022-09-09T07:54:06;23.50;98.30
62991;DHT22;49084;48.204;16.202;2022-09-09T07:56:32;23.60;97.50
62991;DHT22;49084;48.204;16.202;2022-09-09T07:58:58;23.60;97.40
62991;DHT22;49084;48.204;16.202;2022-09-09T08:01:33;23.40;97.40
62991;DHT22;49084;48.204;16.202;2022-09-09T08:04:07;23.10;98.10
62991;DHT22;49084;48.204;16.202;2022-09-09T08:06:39;23.00;99.00
62991;DHT22;49084;48.204;16.202;2022-09-09T08:09:05;22.80;99.70
62991;DHT22;49084;48.204;16.202;2022-09-09T08:11:32;22.70;99.90
62991;DHT22;49084;48.204;16.202;2022-09-09T08:13:58;23.00;99.90
62991;DHT22;49084;48.204;16.202;2022-09-09T08:16:28;23.20;98.80
62991;DHT22;49084;48.204;16.202;2022-09-09T08:18:55;23.20;98.10
62991;DHT22;49084;48.204;16.202;2022-09-09T08:21:23;23.10;96.80
62991;DHT22;49084;48.204;16.202;2022-09-09T08:23:51;22.90;96.60
62991;DHT22;49084;48.204;16.202;2022-09-09T08:26:37;22.90;96.60
62991;DHT22;49084;48.204;16.202;2022-09-09T08:29:05;23.20;96.80
62991;DHT22;49084;48.204;16.202;2022-09-09T08:31:34;23.30;96.60
62991;DHT22;49084;48.204;16.202;2022-09-09T08:34:00;23.30;97.20
62991;DHT22;49084;48.204;16.202;2022-09-09T08:36:29;23.30;97.20
62991;DHT22;49084;48.204;16.202;2022-09-09T08:38:57;23.50;97.20
62991;DHT22;49084;48.204;16.202;2022-09-09T08:52:40;25.70;92.90
62991;DHT22;49084;48.204;16.202;2022-09-09T08:57:48;27.20;86.60
62991;DHT22;49084;48.204;16.202;2022-09-09T09:00:14;27.00;82.50
62991;DHT22;49084;48.204;16.202;2022-09-09T09:05:40;26.70;80.80
62991;DHT22;49084;48.204;16.202;2022-09-09T09:10:58;27.70;77.60
62991;DHT22;49084;48.204;16.202;2022-09-09T09:14:01;28.90;72.50
62991;DHT22;49084;48.204;16.202;2022-09-09T09:19:00;29.70;65.40
62991;DHT22;49084;48.204;16.202;2022-09-09T09:21:42;29.70;62.20
62991;DHT22;49084;48.204;16.202;2022-09-09T09:24:18;30.10;61.30
62991;DHT22;49084;48.204;16.202;2022-09-09T09:26:44;30.00;60.10
62991;DHT22;49084;48.204;16.202;2022-09-09T09:29:13;30.20;59.50
62991;DHT22;49084;48.204;16.202;2022-09-09T09:31:46;30.40;58.00
62991;DHT22;49084;48.204;16.202;2022-09-09T09:34:13;30.40;58.10
62991;DHT22;49084;48.204;16.202;2022-09-09T09:36:52;29.90;56.60
62991;DHT22;49084;48.204;16.202;2022-09-09T09:39:32;29.50;58.10
62991;DHT22;49084;48.204;16.202;2022-09-09T09:42:14;29.50;57.20
62991;DHT22;49084;48.204;16.202;2022-09-09T09:44:41;29.60;57.50
62991;DHT22;49084;48.204;16.202;2022-09-09T09:47:20;29.30;57.30
62991;DHT22;49084;48.204;16.202;2022-09-09T09:49:56;29.10;58.20
62991;DHT22;49084;48.204;16.202;2022-09-09T09:52:31;29.30;56.50
62991;DHT22;49084;48.204;16.202;2022-09-09T09:54:58;29.00;57.20
62991;DHT22;49084;48.204;16.202;2022-09-09T09:57:29;28.80;57.30
62991;DHT22;49084;48.204;16.202;2022-09-09T10:02:40;28.60;56.60
62991;DHT22;49084;48.204;16.202;2022-09-09T10:05:20;28.70;57.10
62991;DHT22;49084;48.204;16.202;2022-09-09T10:07:57;28.70;56.30
62991;DHT22;49084;48.204;16.202;2022-09-09T10:16:08;29.90;53.90
62991;DHT22;49084;48.204;16.202;2022-09-09T10:32:30;30.20;53.80
62991;DHT22;49084;48.204;16.202;2022-09-09T10:38:27;29.90;53.80
62991;DHT22;49084;48.204;16.202;2022-09-09T10:45:53;30.40;53.50
62991;DHT22;49084;48.204;16.202;2022-09-09T10:48:31;30.30;53.70
62991;DHT22;49084;48.204;16.202;2022-09-09T10:56:28;30.20;54.50
62991;DHT22;49084;48.204;16.202;2022-09-09T10:59:02;29.50;54.40
62991;DHT22;49084;48.204;16.202;2022-09-09T11:04:48;27.90;56.50
62991;DHT22;49084;48.204;16.202;2022-09-09T11:07:26;27.80;56.20
62991;DHT22;49084;48.204;16.202;2022-09-09T11:09:56;27.80;56.00
62991;DHT22;49084;48.204;16.202;2022-09-09T11:12:24;27.80;55.90
62991;DHT22;49084;48.204;16.202;2022-09-09T11:15:14;27.40;55.90
62991;DHT22;49084;48.204;16.202;2022-09-09T11:17:48;27.10;57.10
62991;DHT22;49084;48.204;16.202;2022-09-09T11:20:15;27.00;58.70
62991;DHT22;49084;48.204;16.202;2022-09-09T11:25:23;26.80;58.30
62991;DHT22;49084;48.204;16.202;2022-09-09T11:28:14;26.90;60.00
62991;DHT22;49084;48.204;16.202;2022-09-09T11:33:26;27.60;58.70
62991;DHT22;49084;48.204;16.202;2022-09-09T11:39:24;27.30;59.00
62991;DHT22;49084;48.204;16.202;2022-09-09T11:41:51;27.00;57.70
62991;DHT22;49084;48.204;16.202;2022-09-09T11:44:23;26.80;58.70
62991;DHT22;49084;48.204;16.202;2022-09-09T11:46:51;27.10;58.40
62991;DHT22;49084;48.204;16.202;2022-09-09T11:49:43;27.30;58.40
62991;DHT22;49084;48.204;16.202;2022-09-09T11:52:37;27.60;57.10
62991;DHT22;49084;48.204;16.202;2022-09-09T11:55:31;27.90;56.40
62991;DHT22;49084;48.204;16.202;2022-09-09T11:58:02;27.90;57.00
62991;DHT22;49084;48.204;16.202;2022-09-09T12:00:39;27.80;57.70
62991;DHT22;49084;48.204;16.202;2022-09-09T12:06:56;27.50;56.80
62991;DHT22;49084;48.204;16.202;2022-09-09T12:09:22;27.20;57.70
62991;DHT22;49084;48.204;16.202;2022-09-09T12:11:51;26.80;57.80
62991;DHT22;49084;48.204;16.202;2022-09-09T12:14:22;26.30;60.10
62991;DHT22;49084;48.204;16.202;2022-09-09T12:16:48;26.60;60.50
62991;DHT22;49084;48.204;16.202;2022-09-09T12:19:19;27.00;59.70
62991;DHT22;49084;48.204;16.202;2022-09-09T12:27:40;27.40;59.10
62991;DHT22;49084;48.204;16.202;2022-09-09T12:30:12;27.40;59.60
62991;DHT22;49084;48.204;16.202;2022-09-09T12:32:39;27.40;59.20
62991;DHT22;49084;48.204;16.202;2022-09-09T12:35:24;27.40;59.70
62991;DHT22;49084;48.204;16.202;2022-09-09T12:37:55;27.00;59.30
62991;DHT22;49084;48.204;16.202;2022-09-09T12:40:31;26.90;59.90
62991;DHT22;49084;48.204;16.202;2022-09-09T12:42:58;27.00;60.30
62991;DHT22;49084;48.204;16.202;2022-09-09T12:45:27;26.70;60.80
62991;DHT22;49084;48.204;16.202;2022-09-09T12:47:54;26.60;61.00
62991;DHT22;49084;48.204;16.202;2022-09-09T12:50:26;26.40;61.60
62991;DHT22;49084;48.204;16.202;2022-09-09T12:53:07;26.00;62.30
62991;DHT22;49084;48.204;16.202;2022-09-09T12:55:38;25.80;63.70
62991;DHT22;49084;48.204;16.202;2022-09-09T12:58:06;25.70;64.20
62991;DHT22;49084;48.204;16.202;2022-09-09T13:00:33;25.40;64.10
62991;DHT22;49084;48.204;16.202;2022-09-09T13:03:16;25.10;64.50
62991;DHT22;49084;48.204;16.202;2022-09-09T13:05:42;24.90;66.00
62991;DHT22;49084;48.204;16.202;2022-09-09T13:08:10;24.60;66.50
62991;DHT22;49084;48.204;16.202;2022-09-09T13:10:46;24.40;68.00
62991;DHT22;49084;48.204;16.202;2022-09-09T13:13:16;24.20;68.60
62991;DHT22;49084;48.204;16.202;2022-09-09T13:16:02;24.10;69.40
62991;DHT22;49084;48.204;16.202;2022-09-09T13:18:33;23.90;70.30
62991;DHT22;49084;48.204;16.202;2022-09-09T13:20:59;23.80;71.00
62991;DHT22;49084;48.204;16.202;2022-09-09T13:23:31;23.70;71.50
62991;DHT22;49084;48.204;16.202;2022-09-09T13:26:03;23.50;71.50
62991;DHT22;49084;48.204;16.202;2022-09-09T13:28:30;23.40;72.60
62991;DHT22;49084;48.204;16.202;2022-09-09T13:33:34;23.20;72.90
62991;DHT22;49084;48.204;16.202;2022-09-09T13:36:07;23.10;73.50
62991;DHT22;49084;48.204;16.202;2022-09-09T13:41:21;22.90;81.40
62991;DHT22;49084;48.204;16.202;2022-09-09T13:43:47;22.60;88.80
62991;DHT22;49084;48.204;16.202;2022-09-09T13:46:38;22.30;93.50
62991;DHT22;49084;48.204;16.202;2022-09-09T13:54:03;20.90;99.90
62991;DHT22;49084;48.204;16.202;2022-09-09T13:56:30;20.40;99.90
62991;DHT22;49084;48.204;16.202;2022-09-09T13:58:57;19.80;99.90
62991;DHT22;49084;48.204;16.202;2022-09-09T14:01:23;19.40;99.90
62991;DHT22;49084;48.204;16.202;2022-09-09T14:03:49;19.00;99.90
62991;DHT22;49084;48.204;16.202;2022-09-09T14:06:16;18.50;99.90
62991;DHT22;49084;48.204;16.202;2022-09-09T14:08:41;18.20;99.90
62991;DHT22;49084;48.204;16.202;2022-09-09T14:11:12;18.00;99.90
62991;DHT22;49084;48.204;16.202;2022-09-09T14:13:38;17.80;99.90
62991;DHT22;49084;48.204;16.202;2022-09-09T14:16:04;17.70;99.90
62991;DHT22;49084;48.204;16.202;2022-09-09T14:18:30;17.60;99.90
62991;DHT22;49084;48.204;16.202;2022-09-09T14:20:56;17.50;99.90
62991;DHT22;49084;48.204;16.202;2022-09-09T14:23:23;17.50;99.90
62991;DHT22;49084;48.204;16.202;2022-09-09T14:25:50;17.40;99.90
62991;DHT22;49084;48.204;16.202;2022-09-09T14:28:16;17.40;99.90
62991;DHT22;49084;48.204;16.202;2022-09-09T14:30:43;17.40;99.90
62991;DHT22;49084;48.204;16.202;2022-09-09T14:33:11;17.30;99.90
62991;DHT22;49084;48.204;16.202;2022-09-09T14:35:37;17.40;99.90
62991;DHT22;49084;48.204;16.202;2022-09-09T14:38:04;17.40;99.90
62991;DHT22;49084;48.204;16.202;2022-09-09T14:40:30;17.30;99.90
62991;DHT22;49084;48.204;16.202;2022-09-09T14:42:57;17.40;99.90
62991;DHT22;49084;48.204;16.202;2022-09-09T14:45:23;17.40;99.90
62991;DHT22;49084;48.204;16.202;2022-09-09T14:47:50;17.40;99.90
62991;DHT22;49084;48.204;16.202;2022-09-09T14:50:17;17.50;99.90
62991;DHT22;49084;48.204;16.202;2022-09-09T14:52:43;17.50;99.90
62991;DHT22;49084;48.204;16.202;2022-09-09T14:55:09;17.50;99.90
62991;DHT22;49084;48.204;16.202;2022-09-09T14:57:36;17.60;99.90
62991;DHT22;49084;48.204;16.202;2022-09-09T15:00:03;17.60;99.90
62991;DHT22;49084;48.204;16.202;2022-09-09T15:02:29;17.60;99.90
62991;DHT22;49084;48.204;16.202;2022-09-09T15:04:55;17.50;99.90
62991;DHT22;49084;48.204;16.202;2022-09-09T15:07:26;17.40;99.90
62991;DHT22;49084;48.204;16.202;2022-09-09T15:09:54;17.40;99.90
62991;DHT22;49084;48.204;16.202;2022-09-09T15:12:19;17.40;99.90
62991;DHT22;49084;48.204;16.202;2022-09-09T15:14:46;17.40;99.90
62991;DHT22;49084;48.204;16.202;2022-09-09T15:17:12;17.40;99.90
62991;DHT22;49084;48.204;16.202;2022-09-09T15:19:38;17.40;99.90
62991;DHT22;49084;48.204;16.202;2022-09-09T15:22:04;17.50;99.90
62991;DHT22;49084;48.204;16.202;2022-09-09T15:24:31;17.40;99.90
62991;DHT22;49084;48.204;16.202;2022-09-09T15:26:57;17.40;99.90
62991;DHT22;49084;48.204;16.202;2022-09-09T15:29:23;17.30;99.90
62991;DHT22;49084;48.204;16.202;2022-09-09T15:31:49;17.30;99.90
62991;DHT22;49084;48.204;16.202;2022-09-09T15:34:14;17.20;99.90
62991;DHT22;49084;48.204;16.202;2022-09-09T15:36:43;17.20;99.90
62991;DHT22;49084;48.204;16.202;2022-09-09T15:39:11;17.20;99.90
62991;DHT22;49084;48.204;16.202;2022-09-09T15:41:42;17.20;99.90
62991;DHT22;49084;48.204;16.202;2022-09-09T15:44:09;17.20;99.90
62991;DHT22;49084;48.204;16.202;2022-09-09T15:46:44;17.20;99.90
62991;DHT22;49084;48.204;16.202;2022-09-09T15:51:40;17.10;99.90
62991;DHT22;49084;48.204;16.202;2022-09-09T15:54:12;17.00;99.90
62991;DHT22;49084;48.204;16.202;2022-09-09T15:56:38;17.00;99.90
62991;DHT22;49084;48.204;16.202;2022-09-09T15:59:04;17.00;99.90
62991;DHT22;49084;48.204;16.202;2022-09-09T16:01:30;16.90;99.90
62991;DHT22;49084;48.204;16.202;2022-09-09T16:03:57;17.00;99.90
62991;DHT22;49084;48.204;16.202;2022-09-09T16:06:24;16.90;99.90
62991;DHT22;49084;48.204;16.202;2022-09-09T16:08:52;16.90;99.90
62991;DHT22;49084;48.204;16.202;2022-09-09T16:11:37;16.90;99.90
62991;DHT22;49084;48.204;16.202;2022-09-09T16:14:04;16.90;99.90
62991;DHT22;49084;48.204;16.202;2022-09-09T16:16:31;16.80;99.90
62991;DHT22;49084;48.204;16.202;2022-09-09T16:19:00;16.80;99.90
62991;DHT22;49084;48.204;16.202;2022-09-09T16:21:37;16.70;99.90
62991;DHT22;49084;48.204;16.202;2022-09-09T16:24:04;16.70;99.90
62991;DHT22;49084;48.204;16.202;2022-09-09T16:26:32;16.70;99.90
62991;DHT22;49084;48.204;16.202;2022-09-09T16:29:00;16.70;99.90
62991;DHT22;49084;48.204;16.202;2022-09-09T16:31:27;16.70;99.90
62991;DHT22;49084;48.204;16.202;2022-09-09T16:33:53;16.60;99.90
62991;DHT22;49084;48.204;16.202;2022-09-09T16:36:29;16.60;99.90
62991;DHT22;49084;48.204;16.202;2022-09-09T16:39:00;16.60;99.90
62991;DHT22;49084;48.204;16.202;2022-09-09T16:41:27;16.60;99.90
62991;DHT22;49084;48.204;16.202;2022-09-09T16:43:57;16.60;99.90
62991;DHT22;49084;48.204;16.202;2022-09-09T16:46:25;16.60;99.90
62991;DHT22;49084;48.204;16.202;2022-09-09T16:48:51;16.60;99.90
62991;DHT22;49084;48.204;16.202;2022-09-09T16:51:22;16.50;99.90
62991;DHT22;49084;48.204;16.202;2022-09-09T16:53:50;16.50;99.90
62991;DHT22;49084;48.204;16.202;2022-09-09T16:56:18;16.40;99.90
62991;DHT22;49084;48.204;16.202;2022-09-09T16:58:54;16.40;99.90
62991;DHT22;49084;48.204;16.202;2022-09-09T17:01:21;16.40;99.90
62991;DHT22;49084;48.204;16.202;2022-09-09T17:03:47;16.40;99.90
62991;DHT22;49084;48.204;16.202;2022-09-09T17:06:17;16.30;99.90
62991;DHT22;49084;48.204;16.202;2022-09-09T17:08:42;16.40;99.90
62991;DHT22;49084;48.204;16.202;2022-09-09T17:11:13;16.40;99.90
62991;DHT22;49084;48.204;16.202;2022-09-09T17:13:41;16.30;99.90
62991;DHT22;49084;48.204;16.202;2022-09-09T17:16:07;16.20;99.90
62991;DHT22;49084;48.204;16.202;2022-09-09T17:18:34;16.20;99.90
62991;DHT22;49084;48.204;16.202;2022-09-09T17:21:07;16.10;99.90
62991;DHT22;49084;48.204;16.202;2022-09-09T17:23:35;16.10;99.90
62991;DHT22;49084;48.204;16.202;2022-09-09T17:26:05;16.10;99.90
62991;DHT22;49084;48.204;16.202;2022-09-09T17:28:31;16.10;99.90
62991;DHT22;49084;48.204;16.202;2022-09-09T17:30:58;16.00;99.90
62991;DHT22;49084;48.204;16.202;2022-09-09T17:33:28;16.00;99.90
62991;DHT22;49084;48.204;16.202;2022-09-09T17:35:57;15.90;99.90
62991;DHT22;49084;48.204;16.202;2022-09-09T17:38:24;15.80;99.90
62991;DHT22;49084;48.204;16.202;2022-09-09T17:40:51;15.80;99.90
62991;DHT22;49084;48.204;16.202;2022-09-09T17:43:25;15.80;99.90
62991;DHT22;49084;48.204;16.202;2022-09-09T17:45:51;15.80;99.90
62991;DHT22;49084;48.204;16.202;2022-09-09T17:48:17;15.80;99.90
62991;DHT22;49084;48.204;16.202;2022-09-09T17:50:42;15.80;99.90
62991;DHT22;49084;48.204;16.202;2022-09-09T17:53:08;15.70;99.90